Latest Weather Observations for Biloela

IDQ60801

Issued at 9:05 am EST Sunday 23 November 2014 (issued every 30 minutes, with the page automatically refreshed every 10 minutes)

About weather observations | Map of weather stations | Latest weather observations for QLD | Other Formats
Station Details ID: 039089 Name: THANGOOL AIRPORT Lat: -24.49 Lon: 150.57 Height: 193.1 m
Data from the previous 72 hours. | See also: Recent months at Biloela
Date/Time
EST
Temp
°C
App
Temp
°C
Dew
Point
Rel
Hum
%
Delta-T
°C
Wind Press
QNH
hPa
Press
MSL
hPa
Rain
since 9 am
mm
Dir
 
Spd
km/h
Gust
km/h
Spd
kts
Gust
kts
23/09:00am 27.5 28.9 17.9 55 6.1 NNE 7 13 4 7 1018.4 1017.5 0.0
23/08:30am 27.1 28.0 18.4 59 5.6 N 11 17 6 9 1018.4 - 0.0
23/08:00am 27.1 28.0 18.4 59 5.6 NNE 11 17 6 9 1018.5 - 0.0
23/07:30am 26.0 26.7 18.9 65 4.6 NNE 13 17 7 9 1018.4 - 0.0
23/07:00am 25.4 26.9 19.8 71 3.6 NNE 11 15 6 8 1018.2 - 0.0
23/06:30am 24.3 25.6 19.4 74 3.2 N 11 13 6 7 1017.4 - 0.0
23/06:00am 23.6 25.3 20.1 81 2.3 N 11 17 6 9 1017.0 1016.2 0.0
23/05:30am 21.8 23.4 19.2 85 1.7 N 9 9 5 5 1016.6 - 0.0
23/05:00am 21.2 22.9 18.4 84 1.8 N 7 11 4 6 1016.1 - 0.0
23/04:30am 22.0 24.1 19.4 85 1.7 NNW 7 9 4 5 1015.8 - 0.0
23/04:00am 22.1 23.9 18.7 81 2.2 N 7 9 4 5 1015.2 - 0.0
23/03:30am 22.9 24.9 19.1 79 2.4 N 7 11 4 6 1015.1 - 0.0
23/03:00am 24.1 25.2 19.6 76 2.9 N 13 19 7 10 1015.0 1014.1 0.0
23/02:30am 23.9 25.2 19.2 75 3.0 N 11 19 6 10 1014.9 - 0.0
23/02:00am 24.0 25.4 19.5 76 2.9 NE 11 17 6 9 1015.0 - 0.0
23/01:30am 23.9 25.7 19.6 77 2.8 NNE 9 13 5 7 1015.2 - 0.0
23/01:00am 23.9 26.1 19.6 77 2.8 N 7 11 4 6 1015.3 - 0.0
23/12:30am 23.9 25.8 19.8 78 2.7 N 9 13 5 7 1015.6 - 0.0
23/12:00am 24.1 26.4 19.8 77 2.8 N 7 13 4 7 1015.8 1014.9 0.0
 
Date/Time
EST
Temp
°C
App
Temp
°C
Dew
Point
Rel
Hum
%
Delta-T
°C
Wind Press
QNH
hPa
Press
MSL
hPa
Rain
since 9 am
mm
Dir
 
Spd
km/h
Gust
km/h
Spd
kts
Gust
kts
22/11:30pm 24.1 26.5 19.6 76 2.9 N 6 9 3 5 1016.0 - 0.0
22/11:00pm 24.5 26.5 20.0 76 2.9 NNE 9 13 5 7 1016.0 - 0.0
22/10:30pm 24.8 26.0 19.8 74 3.3 NNE 13 17 7 9 1015.9 - 0.0
22/10:00pm 25.3 26.9 19.9 72 3.5 NE 11 19 6 10 1015.7 - 0.0
22/09:30pm 25.5 27.2 20.1 72 3.5 NNE 11 20 6 11 1015.3 - 0.0
22/09:00pm 25.9 28.3 20.0 70 3.9 N 7 17 4 9 1014.9 1014.0 0.0
22/08:30pm 26.4 26.3 20.0 68 4.2 NE 20 32 11 17 1014.3 - 0.0
22/08:00pm 27.0 26.9 19.9 65 4.7 NE 20 28 11 15 1014.0 - 0.0
22/07:30pm 27.6 27.5 19.9 63 5.1 NNE 20 28 11 15 1013.8 - 0.0
22/07:00pm 28.4 27.9 19.9 60 5.6 NE 22 35 12 19 1013.1 - 0.0
22/06:30pm 29.7 28.7 19.7 55 6.6 NNE 24 33 13 18 1012.5 - 0.0
22/06:00pm 30.9 30.2 19.6 51 7.5 NNE 22 35 12 19 1012.1 1011.3 0.0
22/05:30pm 32.5 31.9 19.7 46 8.5 NNE 22 32 12 17 1011.6 - 0.0
22/05:00pm 34.0 33.6 18.1 39 10.4 NNE 17 24 9 13 1011.2 - 0.0
22/04:30pm 34.7 34.6 17.9 37 11.0 N 15 26 8 14 1010.9 - 0.0
22/04:00pm 34.6 35.0 18.2 37 10.7 N 13 19 7 10 1011.0 - 0.0
22/03:30pm 35.0 36.1 18.1 36 11.1 NNE 9 19 5 10 1011.3 - 0.0
22/03:00pm 34.4 35.0 17.6 37 10.9 NE 11 20 6 11 1011.7 1010.8 0.0
22/02:30pm 34.3 35.4 17.9 37 10.7 NW 9 22 5 12 1012.1 - 0.0
22/02:00pm 34.2 34.7 18.3 39 10.4 WNW 13 20 7 11 1012.7 - 0.0
22/01:30pm 35.0 36.5 19.8 41 10.2 NW 11 15 6 8 1013.1 - 0.0
22/01:00pm 33.8 33.7 17.9 38 10.3 N 15 20 8 11 1013.7 - 0.0
22/12:30pm 33.6 32.8 18.5 40 9.9 NW 20 28 11 15 1014.2 - 0.0
22/12:00pm 32.9 31.9 17.9 41 9.7 NNW 20 26 11 14 1014.7 1013.8 0.0
22/11:30am 31.8 32.9 18.0 43 8.9 W 9 15 5 8 1015.4 - 0.0
22/11:00am 31.5 32.1 18.5 46 8.5 NW 13 28 7 15 1016.0 - 0.0
22/10:30am 31.0 30.8 18.4 47 8.2 NNW 17 26 9 14 1016.1 - 0.0
22/10:00am 30.8 31.7 19.2 50 7.6 N 13 22 7 12 1016.4 - 0.0
22/09:30am 29.3 30.1 19.0 53 6.7 N 13 20 7 11 1016.5 - 0.0
22/09:00am 28.3 29.5 19.0 57 6.0 N 11 20 6 11 1016.6 1015.8 0.0
22/08:30am 27.3 28.3 19.4 62 5.1 N 13 22 7 12 1016.7 - 0.0
22/08:04am 26.0 26.3 19.6 68 4.2 N 17 22 9 12 1016.9 - 0.0
22/08:00am 26.9 27.9 20.3 67 4.4 N 15 22 8 12 1016.9 - 0.0
22/07:30am 25.7 26.9 20.7 74 3.3 N 15 20 8 11 1016.9 - 0.0
22/07:28am 25.5 27.2 21.0 76 3.0 N 13 19 7 10 1016.9 - 0.0
22/07:00am 24.5 25.8 20.2 77 2.8 NW 13 19 7 10 1016.8 - 0.0
22/06:30am 23.9 25.8 20.6 82 2.2 NW 11 15 6 8 1016.5 - 0.0
22/06:00am 23.4 26.2 20.5 84 1.9 WNW 6 9 3 5 1016.1 1015.2 0.0
22/05:30am 23.0 25.1 20.1 84 1.9 NNW 9 13 5 7 1015.6 - 0.0
22/05:00am 23.3 25.8 20.2 83 2.0 NNW 7 9 4 5 1015.1 - 0.0
22/04:30am 23.8 25.9 20.1 80 2.4 NNW 9 9 5 5 1014.5 - 0.0
22/04:00am 24.0 26.5 20.3 80 2.4 N 7 11 4 6 1014.3 - 0.0
22/03:30am 24.0 25.3 20.1 79 2.5 N 13 19 7 10 1013.8 - 0.0
22/03:00am 24.4 25.8 20.3 78 2.7 N 13 17 7 9 1013.5 1012.6 0.0
22/02:30am 24.3 25.3 20.2 78 2.7 N 15 20 8 11 1013.3 - 0.0
22/02:00am 24.2 25.9 20.1 78 2.7 N 11 17 6 9 1013.5 - 0.0
22/01:30am 24.2 25.9 20.1 78 2.7 N 11 17 6 9 1013.4 - 0.0
22/01:00am 24.0 25.6 19.9 78 2.7 N 11 15 6 8 1013.9 - 0.0
22/12:30am 24.0 25.1 19.7 77 2.8 N 13 19 7 10 1014.1 - 0.0
22/12:00am 23.7 25.6 19.8 79 2.5 N 9 11 5 6 1014.7 1013.8 0.0
 
Date/Time
EST
Temp
°C
App
Temp
°C
Dew
Point
Rel
Hum
%
Delta-T
°C
Wind Press
QNH
hPa
Press
MSL
hPa
Rain
since 9 am
mm
Dir
 
Spd
km/h
Gust
km/h
Spd
kts
Gust
kts
21/11:30pm 23.9 26.1 19.6 77 2.8 N 7 9 4 5 1015.1 - 0.0
21/11:00pm 24.3 26.1 19.6 75 3.0 NNE 9 13 5 7 1015.0 - 0.0
21/10:30pm 24.6 25.7 19.7 74 3.2 N 13 17 7 9 1014.9 - 0.0
21/10:00pm 24.5 26.2 19.3 73 3.4 NNW 9 13 5 7 1014.9 - 0.0
21/09:30pm 25.2 26.9 19.3 70 3.8 NW 9 13 5 7 1014.3 - 0.0
21/09:00pm 25.6 27.3 19.3 68 4.1 NE 9 17 5 9 1013.8 1012.9 0.0
21/08:30pm 26.0 26.6 19.4 67 4.3 NE 15 28 8 15 1013.5 - 0.0
21/08:00pm 26.6 25.1 19.5 65 4.6 NE 26 39 14 21 1013.1 - 0.0
21/07:30pm 27.3 25.5 19.6 62 5.0 NE 28 41 15 22 1012.7 - 0.0
21/07:00pm 28.3 27.0 19.0 57 6.0 NE 24 37 13 20 1012.2 - 0.0
21/06:30pm 29.6 29.0 18.4 51 7.2 NE 19 26 10 14 1012.2 - 0.0
21/06:00pm 31.0 30.6 18.0 45 8.4 NNE 17 26 9 14 1011.8 1010.9 0.0
21/05:30pm 31.9 31.4 17.8 43 9.1 NNE 17 26 9 14 1011.4 - 0.0
21/05:00pm 32.7 32.1 18.5 43 9.3 NNE 19 24 10 13 1011.3 - 0.0
21/04:30pm 32.9 32.8 17.9 41 9.7 NNE 15 24 8 13 1011.4 - 0.0
21/04:00pm 33.2 32.3 17.8 40 10.0 NE 19 26 10 14 1011.3 - 0.0
21/03:30pm 33.7 33.7 18.2 39 10.1 NNE 15 24 8 13 1011.2 - 0.0
21/03:00pm 33.5 33.7 17.6 38 10.3 NNE 13 19 7 10 1011.6 1010.7 0.0
21/02:30pm 32.9 32.7 17.5 39 9.9 N 15 32 8 17 1012.2 - 0.0
21/02:00pm 33.0 33.6 17.6 40 10.0 NW 11 22 6 12 1012.7 - 0.0
21/01:30pm 32.7 33.3 17.7 40 9.7 NNE 11 19 6 10 1013.2 - 0.0
21/01:00pm 32.4 31.4 17.5 41 9.6 NNW 19 32 10 17 1013.7 - 0.0
21/12:30pm 32.3 31.7 18.5 44 9.0 NNW 19 28 10 15 1014.2 - 0.0
21/12:00pm 31.0 31.2 17.7 45 8.6 N 13 19 7 10 1014.6 1013.7 0.0
21/11:30am 31.3 30.8 18.6 46 8.3 N 19 28 10 15 1015.1 - 0.0
21/11:00am 31.4 31.0 19.4 49 7.9 NNW 20 35 11 19 1015.7 - 0.0
21/10:30am 30.4 29.8 18.8 50 7.6 N 20 33 11 18 1016.1 - 0.0
21/10:00am 27.9 27.6 18.3 56 6.2 NNW 17 26 9 14 1016.6 - 0.0
21/09:30am 29.0 28.2 18.4 52 6.8 N 20 24 11 13 1016.8 - 0.0
21/09:00am 28.0 28.5 20.0 61 5.3 N 17 24 9 13 1017.1 1016.3 0.0
21/08:30am 27.1 27.3 19.4 62 5.0 N 17 26 9 14 1017.3 - 0.0
21/08:00am 25.8 26.4 19.4 67 4.2 N 15 20 8 11 1017.4 - 0.0
21/07:30am 25.4 26.6 19.8 71 3.6 NNW 13 17 7 9 1017.4 - 0.0
21/07:00am 24.4 26.6 19.5 74 3.2 NNW 7 13 4 7 1017.2 - 0.0
21/06:30am 23.5 26.3 19.6 79 2.5 NW 4 7 2 4 1016.7 - 0.0
21/06:00am 23.3 26.8 19.5 79 2.4 CALM 0 0 0 0 1016.4 1015.5 0.0
21/05:30am 22.9 25.1 19.3 80 2.3 N 6 7 3 4 1015.8 - 0.0
21/05:00am 22.6 24.3 19.4 82 2.1 N 9 11 5 6 1015.2 - 0.0
21/04:30am 22.9 24.7 19.5 81 2.2 N 9 15 5 8 1015.3 - 0.0
21/04:00am 22.5 24.3 19.5 83 1.9 N 9 13 5 7 1014.7 - 0.0
21/03:30am 22.8 24.9 19.4 81 2.2 NNW 7 9 4 5 1015.1 - 0.0
21/03:00am 23.3 24.6 19.2 78 2.6 N 11 13 6 7 1014.8 1013.9 0.0
21/02:30am 23.7 24.9 19.0 75 3.0 NNE 11 15 6 8 1014.9 - 0.0
21/02:00am 23.9 25.4 19.0 74 3.1 NNE 9 15 5 8 1015.0 - 0.0
21/01:30am 24.0 24.4 18.9 73 3.3 NNE 15 24 8 13 1014.9 - 0.0
21/01:00am 23.7 25.3 19.2 76 2.9 N 9 13 5 7 1015.1 - 0.0
21/12:30am 23.3 25.4 19.0 77 2.8 N 6 11 3 6 1015.4 - 0.0
21/12:00am 23.7 24.5 19.0 75 3.0 N 13 24 7 13 1015.3 1014.4 0.0
 
Date/Time
EST
Temp
°C
App
Temp
°C
Dew
Point
Rel
Hum
%
Delta-T
°C
Wind Press
QNH
hPa
Press
MSL
hPa
Rain
since 9 am
mm
Dir
 
Spd
km/h
Gust
km/h
Spd
kts
Gust
kts
20/11:30pm 24.0 25.1 18.9 73 3.3 N 11 19 6 10 1015.8 - 0.0
20/11:00pm 24.0 25.2 19.1 74 3.1 NNE 11 19 6 10 1016.0 - 0.0
20/10:30pm 24.0 24.9 19.3 75 3.0 N 13 20 7 11 1016.2 - 0.0
20/10:00pm 24.2 25.0 19.1 73 3.3 NNE 13 22 7 12 1016.3 - 0.0
20/09:30pm 24.3 26.1 18.7 71 3.6 N 7 13 4 7 1016.4 - 0.0
20/09:00pm 24.4 25.6 19.0 72 3.5 WNW 11 20 6 11 1016.1 1015.2 0.0
20/08:30pm 24.9 23.7 19.3 71 3.6 NE 24 33 13 18 1015.4 - 0.0
20/08:00pm 25.4 22.7 19.3 69 3.9 NE 32 39 17 21 1015.0 - 0.0
20/07:30pm 26.0 24.4 19.2 66 4.4 NE 26 37 14 20 1014.8 - 0.0
20/07:00pm 26.6 25.1 19.5 65 4.6 NE 26 35 14 19 1014.4 - 0.0
20/06:30pm 27.1 26.7 19.4 62 5.0 NE 20 30 11 16 1014.1 - 0.0
20/06:00pm 28.2 27.3 19.1 57 5.9 NE 22 30 12 16 1013.5 1012.6 0.0
20/05:30pm 29.2 28.6 18.9 53 6.7 NNE 20 30 11 16 1013.1 - 0.0
20/05:00pm 30.0 29.1 19.1 52 7.1 NNE 22 30 12 16 1012.8 - 0.0
20/04:30pm 30.5 29.6 18.2 47 8.0 NNE 20 32 11 17 1012.7 - 0.0
20/04:00pm 30.6 29.7 19.0 50 7.6 NNE 22 33 12 18 1012.6 - 0.0
20/03:30pm 31.9 32.2 19.5 47 8.2 NNE 17 24 9 13 1012.7 - 0.0
20/03:00pm 30.3 30.2 18.7 50 7.6 NNE 17 24 9 13 1013.0 1012.1 0.0
20/02:30pm 30.5 29.8 18.2 47 8.0 N 19 26 10 14 1013.2 - 0.0
20/02:00pm 31.1 30.3 18.5 47 8.2 NNE 20 26 11 14 1013.5 - 0.0
20/01:30pm 32.2 31.4 18.4 44 9.0 N 20 28 11 15 1013.8 - 0.0
20/01:00pm 32.3 31.8 17.7 41 9.4 N 17 22 9 12 1014.5 - 0.0
20/12:30pm 31.9 31.7 18.5 45 8.7 N 17 26 9 14 1015.1 - 0.0
20/12:00pm 30.5 29.8 18.2 47 8.0 NNE 19 24 10 13 1015.7 1014.8 0.0
20/11:30am 29.6 29.2 18.1 50 7.4 NNE 17 26 9 14 1016.3 - 0.0
20/11:00am 28.8 28.3 17.0 49 7.5 N 15 30 8 16 1016.6 - 0.0
20/10:30am 28.7 28.5 17.6 51 7.1 N 15 22 8 12 1017.1 - 0.0
20/10:00am 27.5 27.7 17.7 55 6.2 N 13 20 7 11 1017.5 - 0.0
20/09:30am 26.9 27.2 18.7 60 5.3 N 15 22 8 12 1017.7 - 0.0

Other Formats:

Comma delimited format used in spreadsheet applications
http://www.bom.gov.au/fwo/IDQ60801/IDQ60801.94376.axf

JavaScript Object Notation format (JSON) in row-major order
http://www.bom.gov.au/fwo/IDQ60801/IDQ60801.94376.json